sensor_id;sensor_type;location;lat;lon;timestamp;temperature;humidity
9772;DHT22;4925;52.588;13.370;2022-10-16T00:00:37;15.90;99.90
9772;DHT22;4925;52.588;13.370;2022-10-16T00:03:03;15.90;99.90
9772;DHT22;4925;52.588;13.370;2022-10-16T00:05:29;15.80;99.90
9772;DHT22;4925;52.588;13.370;2022-10-16T00:07:55;15.80;99.90
9772;DHT22;4925;52.588;13.370;2022-10-16T00:10:20;15.80;99.90
9772;DHT22;4925;52.588;13.370;2022-10-16T00:12:46;15.80;99.90
9772;DHT22;4925;52.588;13.370;2022-10-16T00:15:12;15.80;99.90
9772;DHT22;4925;52.588;13.370;2022-10-16T00:17:37;15.80;99.90
9772;DHT22;4925;52.588;13.370;2022-10-16T00:20:03;15.80;99.90
9772;DHT22;4925;52.588;13.370;2022-10-16T00:22:29;15.80;99.90
9772;DHT22;4925;52.588;13.370;2022-10-16T00:24:55;15.80;99.90
9772;DHT22;4925;52.588;13.370;2022-10-16T00:27:20;15.80;99.90
9772;DHT22;4925;52.588;13.370;2022-10-16T00:29:52;15.80;99.90
9772;DHT22;4925;52.588;13.370;2022-10-16T00:32:19;15.80;99.90
9772;DHT22;4925;52.588;13.370;2022-10-16T00:34:44;15.80;99.90
9772;DHT22;4925;52.588;13.370;2022-10-16T00:37:11;15.80;99.90
9772;DHT22;4925;52.588;13.370;2022-10-16T00:39:36;15.80;99.90
9772;DHT22;4925;52.588;13.370;2022-10-16T00:42:02;15.80;99.90
9772;DHT22;4925;52.588;13.370;2022-10-16T00:45:04;15.80;99.90
9772;DHT22;4925;52.588;13.370;2022-10-16T00:47:36;15.90;99.90
9772;DHT22;4925;52.588;13.370;2022-10-16T00:52:34;15.80;99.90
9772;DHT22;4925;52.588;13.370;2022-10-16T00:55:02;15.80;99.90
9772;DHT22;4925;52.588;13.370;2022-10-16T00:57:28;15.80;99.90
9772;DHT22;4925;52.588;13.370;2022-10-16T00:59:54;15.80;99.90
9772;DHT22;4925;52.588;13.370;2022-10-16T01:02:20;15.80;99.90
9772;DHT22;4925;52.588;13.370;2022-10-16T01:04:53;15.80;99.90
9772;DHT22;4925;52.588;13.370;2022-10-16T01:07:28;15.80;99.90
9772;DHT22;4925;52.588;13.370;2022-10-16T01:15:34;15.80;99.90
9772;DHT22;4925;52.588;13.370;2022-10-16T01:23:32;15.80;99.90
9772;DHT22;4925;52.588;13.370;2022-10-16T01:29:26;15.80;99.90
9772;DHT22;4925;52.588;13.370;2022-10-16T01:32:00;15.80;99.90
9772;DHT22;4925;52.588;13.370;2022-10-16T01:34:37;15.80;99.90
9772;DHT22;4925;52.588;13.370;2022-10-16T01:37:12;15.80;99.90
9772;DHT22;4925;52.588;13.370;2022-10-16T01:39:40;15.80;99.90
9772;DHT22;4925;52.588;13.370;2022-10-16T01:42:19;15.80;99.90
9772;DHT22;4925;52.588;13.370;2022-10-16T01:44:46;15.80;99.90
9772;DHT22;4925;52.588;13.370;2022-10-16T01:47:13;15.80;99.90
9772;DHT22;4925;52.588;13.370;2022-10-16T01:49:41;15.80;99.90
9772;DHT22;4925;52.588;13.370;2022-10-16T01:52:12;15.80;99.90
9772;DHT22;4925;52.588;13.370;2022-10-16T01:54:42;15.80;99.90
9772;DHT22;4925;52.588;13.370;2022-10-16T01:57:10;15.80;99.90
9772;DHT22;4925;52.588;13.370;2022-10-16T01:59:42;15.80;99.90
9772;DHT22;4925;52.588;13.370;2022-10-16T02:02:10;15.90;99.90
9772;DHT22;4925;52.588;13.370;2022-10-16T02:04:46;15.80;99.90
9772;DHT22;4925;52.588;13.370;2022-10-16T02:07:13;15.90;99.90
9772;DHT22;4925;52.588;13.370;2022-10-16T02:09:39;15.80;99.90
9772;DHT22;4925;52.588;13.370;2022-10-16T02:12:20;15.80;99.90
9772;DHT22;4925;52.588;13.370;2022-10-16T02:14:47;15.80;99.90
9772;DHT22;4925;52.588;13.370;2022-10-16T02:17:16;15.80;99.90
9772;DHT22;4925;52.588;13.370;2022-10-16T02:19:42;15.80;99.90
9772;DHT22;4925;52.588;13.370;2022-10-16T02:22:15;15.80;99.90
9772;DHT22;4925;52.588;13.370;2022-10-16T02:27:34;15.80;99.90
9772;DHT22;4925;52.588;13.370;2022-10-16T02:30:14;15.80;99.90
9772;DHT22;4925;52.588;13.370;2022-10-16T02:32:45;15.80;99.90
9772;DHT22;4925;52.588;13.370;2022-10-16T02:35:17;15.80;99.90
9772;DHT22;4925;52.588;13.370;2022-10-16T02:37:45;15.80;99.90
9772;DHT22;4925;52.588;13.370;2022-10-16T02:40:11;15.80;99.90
9772;DHT22;4925;52.588;13.370;2022-10-16T02:42:39;15.80;99.90
9772;DHT22;4925;52.588;13.370;2022-10-16T02:45:06;15.80;99.90
9772;DHT22;4925;52.588;13.370;2022-10-16T02:47:32;15.80;99.90
9772;DHT22;4925;52.588;13.370;2022-10-16T02:49:57;15.80;99.90
9772;DHT22;4925;52.588;13.370;2022-10-16T02:52:23;15.80;99.90
9772;DHT22;4925;52.588;13.370;2022-10-16T02:54:48;15.80;99.90
9772;DHT22;4925;52.588;13.370;2022-10-16T02:57:14;15.80;99.90
9772;DHT22;4925;52.588;13.370;2022-10-16T02:59:40;15.90;99.90
9772;DHT22;4925;52.588;13.370;2022-10-16T03:02:05;15.90;99.90
9772;DHT22;4925;52.588;13.370;2022-10-16T03:04:31;15.90;99.90
9772;DHT22;4925;52.588;13.370;2022-10-16T03:06:56;15.90;99.90
9772;DHT22;4925;52.588;13.370;2022-10-16T03:09:22;15.80;99.90
9772;DHT22;4925;52.588;13.370;2022-10-16T03:11:47;15.90;99.90
9772;DHT22;4925;52.588;13.370;2022-10-16T03:14:13;15.90;99.90
9772;DHT22;4925;52.588;13.370;2022-10-16T03:16:38;15.80;99.90
9772;DHT22;4925;52.588;13.370;2022-10-16T03:19:04;15.80;99.90
9772;DHT22;4925;52.588;13.370;2022-10-16T03:21:30;15.80;99.90
9772;DHT22;4925;52.588;13.370;2022-10-16T03:23:55;15.80;99.90
9772;DHT22;4925;52.588;13.370;2022-10-16T03:26:22;15.80;99.90
9772;DHT22;4925;52.588;13.370;2022-10-16T03:28:47;15.80;99.90
9772;DHT22;4925;52.588;13.370;2022-10-16T03:31:13;15.80;99.90
9772;DHT22;4925;52.588;13.370;2022-10-16T03:33:39;15.80;99.90
9772;DHT22;4925;52.588;13.370;2022-10-16T03:36:04;15.70;99.90
9772;DHT22;4925;52.588;13.370;2022-10-16T03:38:30;15.70;99.90
9772;DHT22;4925;52.588;13.370;2022-10-16T03:40:55;15.70;99.90
9772;DHT22;4925;52.588;13.370;2022-10-16T03:43:21;15.70;99.90
9772;DHT22;4925;52.588;13.370;2022-10-16T03:45:46;15.70;99.90
9772;DHT22;4925;52.588;13.370;2022-10-16T03:48:12;15.60;99.90
9772;DHT22;4925;52.588;13.370;2022-10-16T03:50:38;15.60;99.90
9772;DHT22;4925;52.588;13.370;2022-10-16T03:53:03;15.60;99.90
9772;DHT22;4925;52.588;13.370;2022-10-16T03:55:29;15.60;99.90
9772;DHT22;4925;52.588;13.370;2022-10-16T03:57:55;15.60;99.90
9772;DHT22;4925;52.588;13.370;2022-10-16T04:00:20;15.60;99.90
9772;DHT22;4925;52.588;13.370;2022-10-16T04:02:46;15.50;99.90
9772;DHT22;4925;52.588;13.370;2022-10-16T04:05:12;15.50;99.90
9772;DHT22;4925;52.588;13.370;2022-10-16T04:07:37;15.60;99.90
9772;DHT22;4925;52.588;13.370;2022-10-16T04:10:03;15.50;99.90
9772;DHT22;4925;52.588;13.370;2022-10-16T04:12:29;15.50;99.90
9772;DHT22;4925;52.588;13.370;2022-10-16T04:14:55;15.50;99.90
9772;DHT22;4925;52.588;13.370;2022-10-16T04:17:20;15.50;99.90
9772;DHT22;4925;52.588;13.370;2022-10-16T04:19:46;15.50;99.90
9772;DHT22;4925;52.588;13.370;2022-10-16T04:22:12;15.40;99.90
9772;DHT22;4925;52.588;13.370;2022-10-16T04:24:37;15.40;99.90
9772;DHT22;4925;52.588;13.370;2022-10-16T04:27:03;15.40;99.90
9772;DHT22;4925;52.588;13.370;2022-10-16T04:29:29;15.30;99.90
9772;DHT22;4925;52.588;13.370;2022-10-16T04:31:54;15.30;99.90
9772;DHT22;4925;52.588;13.370;2022-10-16T04:34:20;15.40;99.90
9772;DHT22;4925;52.588;13.370;2022-10-16T04:36:49;15.30;99.90
9772;DHT22;4925;52.588;13.370;2022-10-16T04:39:15;15.30;99.90
9772;DHT22;4925;52.588;13.370;2022-10-16T04:41:41;15.30;99.90
9772;DHT22;4925;52.588;13.370;2022-10-16T04:44:07;15.30;99.90
9772;DHT22;4925;52.588;13.370;2022-10-16T04:46:33;15.20;99.90
9772;DHT22;4925;52.588;13.370;2022-10-16T04:48:59;15.50;99.90
9772;DHT22;4925;52.588;13.370;2022-10-16T04:51:25;15.20;99.90
9772;DHT22;4925;52.588;13.370;2022-10-16T04:53:51;15.20;99.90
9772;DHT22;4925;52.588;13.370;2022-10-16T04:56:16;15.20;99.90
9772;DHT22;4925;52.588;13.370;2022-10-16T04:58:42;15.20;99.90
9772;DHT22;4925;52.588;13.370;2022-10-16T05:01:08;15.10;99.90
9772;DHT22;4925;52.588;13.370;2022-10-16T05:03:34;15.10;99.90
9772;DHT22;4925;52.588;13.370;2022-10-16T05:05:59;15.10;99.90
9772;DHT22;4925;52.588;13.370;2022-10-16T05:08:25;15.10;99.90
9772;DHT22;4925;52.588;13.370;2022-10-16T05:10:51;15.10;99.90
9772;DHT22;4925;52.588;13.370;2022-10-16T05:13:16;15.10;99.90
9772;DHT22;4925;52.588;13.370;2022-10-16T05:15:42;15.50;99.90
9772;DHT22;4925;52.588;13.370;2022-10-16T05:18:08;15.10;99.90
9772;DHT22;4925;52.588;13.370;2022-10-16T05:20:34;15.10;99.90
9772;DHT22;4925;52.588;13.370;2022-10-16T05:22:59;15.00;99.90
9772;DHT22;4925;52.588;13.370;2022-10-16T05:25:25;15.00;99.90
9772;DHT22;4925;52.588;13.370;2022-10-16T05:27:51;15.10;99.90
9772;DHT22;4925;52.588;13.370;2022-10-16T05:30:17;15.00;99.90
9772;DHT22;4925;52.588;13.370;2022-10-16T05:32:47;15.00;99.90
9772;DHT22;4925;52.588;13.370;2022-10-16T05:35:13;14.90;99.90
9772;DHT22;4925;52.588;13.370;2022-10-16T05:37:39;15.00;99.90
9772;DHT22;4925;52.588;13.370;2022-10-16T05:40:05;15.00;99.90
9772;DHT22;4925;52.588;13.370;2022-10-16T05:42:31;14.90;99.90
9772;DHT22;4925;52.588;13.370;2022-10-16T05:44:56;14.90;99.90
9772;DHT22;4925;52.588;13.370;2022-10-16T05:47:22;15.10;99.90
9772;DHT22;4925;52.588;13.370;2022-10-16T05:49:48;15.00;99.90
9772;DHT22;4925;52.588;13.370;2022-10-16T05:52:13;15.00;99.90
9772;DHT22;4925;52.588;13.370;2022-10-16T05:54:39;15.00;99.90
9772;DHT22;4925;52.588;13.370;2022-10-16T05:57:04;15.00;99.90
9772;DHT22;4925;52.588;13.370;2022-10-16T05:59:32;15.00;99.90
9772;DHT22;4925;52.588;13.370;2022-10-16T06:01:57;15.10;99.90
9772;DHT22;4925;52.588;13.370;2022-10-16T06:04:23;15.10;99.90
9772;DHT22;4925;52.588;13.370;2022-10-16T06:06:49;15.10;99.90
9772;DHT22;4925;52.588;13.370;2022-10-16T06:09:14;15.20;99.90
9772;DHT22;4925;52.588;13.370;2022-10-16T06:11:40;15.20;99.90
9772;DHT22;4925;52.588;13.370;2022-10-16T06:14:05;15.20;99.90
9772;DHT22;4925;52.588;13.370;2022-10-16T06:16:35;15.20;99.90
9772;DHT22;4925;52.588;13.370;2022-10-16T06:19:02;15.20;99.90
9772;DHT22;4925;52.588;13.370;2022-10-16T06:21:29;15.30;99.90
9772;DHT22;4925;52.588;13.370;2022-10-16T06:23:57;15.30;99.90
9772;DHT22;4925;52.588;13.370;2022-10-16T06:26:25;15.30;99.90
9772;DHT22;4925;52.588;13.370;2022-10-16T06:28:51;15.40;99.90
9772;DHT22;4925;52.588;13.370;2022-10-16T06:31:17;15.40;99.90
9772;DHT22;4925;52.588;13.370;2022-10-16T06:33:43;15.40;99.90
9772;DHT22;4925;52.588;13.370;2022-10-16T06:36:13;15.40;99.90
9772;DHT22;4925;52.588;13.370;2022-10-16T06:38:40;15.40;99.90
9772;DHT22;4925;52.588;13.370;2022-10-16T06:41:07;15.40;99.90
9772;DHT22;4925;52.588;13.370;2022-10-16T06:43:33;15.50;99.90
9772;DHT22;4925;52.588;13.370;2022-10-16T06:46:01;15.50;99.90
9772;DHT22;4925;52.588;13.370;2022-10-16T06:48:28;15.50;99.90
9772;DHT22;4925;52.588;13.370;2022-10-16T06:53:35;15.60;99.90
9772;DHT22;4925;52.588;13.370;2022-10-16T06:56:15;15.60;99.90
9772;DHT22;4925;52.588;13.370;2022-10-16T06:58:42;15.60;99.90
9772;DHT22;4925;52.588;13.370;2022-10-16T07:01:10;15.70;99.90
9772;DHT22;4925;52.588;13.370;2022-10-16T07:03:40;15.70;99.90
9772;DHT22;4925;52.588;13.370;2022-10-16T07:06:08;15.80;99.90
9772;DHT22;4925;52.588;13.370;2022-10-16T07:08:36;15.80;99.90
9772;DHT22;4925;52.588;13.370;2022-10-16T07:11:08;15.90;99.90
9772;DHT22;4925;52.588;13.370;2022-10-16T07:13:35;16.00;99.90
9772;DHT22;4925;52.588;13.370;2022-10-16T07:16:11;16.00;99.90
9772;DHT22;4925;52.588;13.370;2022-10-16T07:18:37;16.10;99.90
9772;DHT22;4925;52.588;13.370;2022-10-16T07:21:10;16.10;99.90
9772;DHT22;4925;52.588;13.370;2022-10-16T07:23:37;16.10;99.90
9772;DHT22;4925;52.588;13.370;2022-10-16T07:26:03;16.10;99.90
9772;DHT22;4925;52.588;13.370;2022-10-16T07:28:30;16.20;99.90
9772;DHT22;4925;52.588;13.370;2022-10-16T07:31:03;16.20;99.90
9772;DHT22;4925;52.588;13.370;2022-10-16T07:33:31;16.20;99.90
9772;DHT22;4925;52.588;13.370;2022-10-16T07:35:57;16.30;99.90
9772;DHT22;4925;52.588;13.370;2022-10-16T07:38:23;16.30;99.90
9772;DHT22;4925;52.588;13.370;2022-10-16T07:40:58;16.40;99.90
9772;DHT22;4925;52.588;13.370;2022-10-16T07:43:25;16.40;99.90
9772;DHT22;4925;52.588;13.370;2022-10-16T07:45:51;16.50;99.90
9772;DHT22;4925;52.588;13.370;2022-10-16T07:48:17;16.70;99.90
9772;DHT22;4925;52.588;13.370;2022-10-16T07:50:44;16.60;99.90
9772;DHT22;4925;52.588;13.370;2022-10-16T07:53:10;16.70;99.90
9772;DHT22;4925;52.588;13.370;2022-10-16T07:55:36;16.70;99.90
9772;DHT22;4925;52.588;13.370;2022-10-16T07:58:02;16.80;99.90
9772;DHT22;4925;52.588;13.370;2022-10-16T08:00:28;16.80;99.90
9772;DHT22;4925;52.588;13.370;2022-10-16T08:02:53;16.80;99.90
9772;DHT22;4925;52.588;13.370;2022-10-16T08:05:19;16.90;99.90
9772;DHT22;4925;52.588;13.370;2022-10-16T08:07:49;16.80;99.90
9772;DHT22;4925;52.588;13.370;2022-10-16T08:10:18;16.80;99.90
9772;DHT22;4925;52.588;13.370;2022-10-16T08:12:43;16.80;99.90
9772;DHT22;4925;52.588;13.370;2022-10-16T08:15:09;16.80;99.90
9772;DHT22;4925;52.588;13.370;2022-10-16T08:17:35;16.80;99.90
9772;DHT22;4925;52.588;13.370;2022-10-16T08:20:01;16.80;99.90
9772;DHT22;4925;52.588;13.370;2022-10-16T08:22:28;16.80;99.90
9772;DHT22;4925;52.588;13.370;2022-10-16T08:24:53;16.80;99.90
9772;DHT22;4925;52.588;13.370;2022-10-16T08:27:19;16.90;99.90
9772;DHT22;4925;52.588;13.370;2022-10-16T08:29:44;16.90;99.90
9772;DHT22;4925;52.588;13.370;2022-10-16T08:32:10;16.90;99.90
9772;DHT22;4925;52.588;13.370;2022-10-16T08:34:36;16.90;99.90
9772;DHT22;4925;52.588;13.370;2022-10-16T08:37:01;16.90;99.90
9772;DHT22;4925;52.588;13.370;2022-10-16T08:39:28;16.90;99.90
9772;DHT22;4925;52.588;13.370;2022-10-16T08:47:35;17.10;99.90
9772;DHT22;4925;52.588;13.370;2022-10-16T08:50:13;17.20;99.90
9772;DHT22;4925;52.588;13.370;2022-10-16T08:52:42;17.30;99.90
9772;DHT22;4925;52.588;13.370;2022-10-16T08:58:10;17.40;99.90
9772;DHT22;4925;52.588;13.370;2022-10-16T09:00:38;17.60;99.90
9772;DHT22;4925;52.588;13.370;2022-10-16T09:03:17;17.60;99.90
9772;DHT22;4925;52.588;13.370;2022-10-16T09:06:07;17.60;99.90
9772;DHT22;4925;52.588;13.370;2022-10-16T09:11:19;17.90;99.90
9772;DHT22;4925;52.588;13.370;2022-10-16T09:16:48;18.10;99.90
9772;DHT22;4925;52.588;13.370;2022-10-16T09:19:44;18.20;99.90
9772;DHT22;4925;52.588;13.370;2022-10-16T09:22:14;18.40;99.90
9772;DHT22;4925;52.588;13.370;2022-10-16T09:24:40;18.40;99.90
9772;DHT22;4925;52.588;13.370;2022-10-16T09:27:11;18.50;99.90
9772;DHT22;4925;52.588;13.370;2022-10-16T09:29:37;18.50;99.90
9772;DHT22;4925;52.588;13.370;2022-10-16T09:32:14;18.50;99.90
9772;DHT22;4925;52.588;13.370;2022-10-16T09:34:48;18.50;99.90
9772;DHT22;4925;52.588;13.370;2022-10-16T09:37:18;18.60;99.90
9772;DHT22;4925;52.588;13.370;2022-10-16T09:39:52;18.40;99.90
9772;DHT22;4925;52.588;13.370;2022-10-16T09:42:30;18.60;99.90
9772;DHT22;4925;52.588;13.370;2022-10-16T09:44:56;18.60;99.90
9772;DHT22;4925;52.588;13.370;2022-10-16T09:47:27;18.70;99.90
9772;DHT22;4925;52.588;13.370;2022-10-16T09:49:58;18.70;99.90
9772;DHT22;4925;52.588;13.370;2022-10-16T09:52:28;18.70;99.90
9772;DHT22;4925;52.588;13.370;2022-10-16T09:55:02;18.70;99.90
9772;DHT22;4925;52.588;13.370;2022-10-16T09:57:28;18.70;99.90
9772;DHT22;4925;52.588;13.370;2022-10-16T09:59:57;18.70;99.90
9772;DHT22;4925;52.588;13.370;2022-10-16T10:04:54;18.90;99.90
9772;DHT22;4925;52.588;13.370;2022-10-16T10:07:27;19.00;99.90
9772;DHT22;4925;52.588;13.370;2022-10-16T10:09:54;19.20;99.90
9772;DHT22;4925;52.588;13.370;2022-10-16T10:12:26;19.30;99.90
9772;DHT22;4925;52.588;13.370;2022-10-16T10:14:54;19.30;99.90
9772;DHT22;4925;52.588;13.370;2022-10-16T10:17:21;19.30;99.90
9772;DHT22;4925;52.588;13.370;2022-10-16T10:20:26;19.20;99.90
9772;DHT22;4925;52.588;13.370;2022-10-16T10:22:53;19.10;99.90
9772;DHT22;4925;52.588;13.370;2022-10-16T10:25:42;19.00;99.90
9772;DHT22;4925;52.588;13.370;2022-10-16T10:39:20;18.90;99.90
9772;DHT22;4925;52.588;13.370;2022-10-16T10:42:00;18.90;99.90
9772;DHT22;4925;52.588;13.370;2022-10-16T10:44:51;19.00;99.90
9772;DHT22;4925;52.588;13.370;2022-10-16T10:53:31;19.10;99.90
9772;DHT22;4925;52.588;13.370;2022-10-16T10:56:16;19.20;99.90
9772;DHT22;4925;52.588;13.370;2022-10-16T10:58:50;19.40;99.90
9772;DHT22;4925;52.588;13.370;2022-10-16T11:04:15;19.80;99.90
9772;DHT22;4925;52.588;13.370;2022-10-16T11:09:30;19.80;99.90
9772;DHT22;4925;52.588;13.370;2022-10-16T11:17:51;19.60;99.90
9772;DHT22;4925;52.588;13.370;2022-10-16T11:20:23;19.70;99.90
9772;DHT22;4925;52.588;13.370;2022-10-16T11:23:06;19.70;99.90
9772;DHT22;4925;52.588;13.370;2022-10-16T11:25:33;19.80;99.90
9772;DHT22;4925;52.588;13.370;2022-10-16T11:28:32;19.80;99.90
9772;DHT22;4925;52.588;13.370;2022-10-16T11:31:10;19.80;99.90
9772;DHT22;4925;52.588;13.370;2022-10-16T11:39:21;19.60;99.90
9772;DHT22;4925;52.588;13.370;2022-10-16T11:41:51;19.60;99.90
9772;DHT22;4925;52.588;13.370;2022-10-16T11:46:53;20.00;99.90
9772;DHT22;4925;52.588;13.370;2022-10-16T11:49:25;20.20;99.90
9772;DHT22;4925;52.588;13.370;2022-10-16T11:52:25;20.40;99.90
9772;DHT22;4925;52.588;13.370;2022-10-16T11:57:24;20.90;99.90
9772;DHT22;4925;52.588;13.370;2022-10-16T12:00:02;21.10;99.90
9772;DHT22;4925;52.588;13.370;2022-10-16T12:08:02;21.20;99.90
9772;DHT22;4925;52.588;13.370;2022-10-16T12:10:30;21.20;99.90
9772;DHT22;4925;52.588;13.370;2022-10-16T12:12:57;21.40;99.90
9772;DHT22;4925;52.588;13.370;2022-10-16T12:15:28;21.30;99.90
9772;DHT22;4925;52.588;13.370;2022-10-16T12:17:54;21.50;99.90
9772;DHT22;4925;52.588;13.370;2022-10-16T12:20:31;21.50;99.90
9772;DHT22;4925;52.588;13.370;2022-10-16T12:23:06;21.80;99.90
9772;DHT22;4925;52.588;13.370;2022-10-16T12:25:34;21.90;99.90
9772;DHT22;4925;52.588;13.370;2022-10-16T12:28:04;22.10;99.90
9772;DHT22;4925;52.588;13.370;2022-10-16T12:30:33;22.30;99.90
9772;DHT22;4925;52.588;13.370;2022-10-16T12:33:21;22.50;99.90
9772;DHT22;4925;52.588;13.370;2022-10-16T12:35:47;22.50;99.90
9772;DHT22;4925;52.588;13.370;2022-10-16T12:41:09;22.70;99.90
9772;DHT22;4925;52.588;13.370;2022-10-16T12:43:42;22.80;99.90
9772;DHT22;4925;52.588;13.370;2022-10-16T12:48:34;23.00;99.90
9772;DHT22;4925;52.588;13.370;2022-10-16T12:59:17;23.10;99.90
9772;DHT22;4925;52.588;13.370;2022-10-16T13:10:36;22.70;99.90
9772;DHT22;4925;52.588;13.370;2022-10-16T13:18:19;21.80;99.90
9772;DHT22;4925;52.588;13.370;2022-10-16T13:23:33;21.80;99.90
9772;DHT22;4925;52.588;13.370;2022-10-16T13:26:21;21.80;99.90
9772;DHT22;4925;52.588;13.370;2022-10-16T13:28:49;21.80;99.90
9772;DHT22;4925;52.588;13.370;2022-10-16T13:31:24;21.80;99.90
9772;DHT22;4925;52.588;13.370;2022-10-16T13:33:52;21.80;99.90
9772;DHT22;4925;52.588;13.370;2022-10-16T13:36:35;21.70;99.90
9772;DHT22;4925;52.588;13.370;2022-10-16T13:39:14;21.60;99.90
9772;DHT22;4925;52.588;13.370;2022-10-16T13:41:40;21.70;99.90
9772;DHT22;4925;52.588;13.370;2022-10-16T13:44:14;21.70;99.90
9772;DHT22;4925;52.588;13.370;2022-10-16T13:46:40;21.70;99.90
9772;DHT22;4925;52.588;13.370;2022-10-16T13:49:16;21.80;99.90
9772;DHT22;4925;52.588;13.370;2022-10-16T13:51:59;21.80;99.90
9772;DHT22;4925;52.588;13.370;2022-10-16T13:54:26;21.80;99.90
9772;DHT22;4925;52.588;13.370;2022-10-16T13:56:54;21.80;99.70
9772;DHT22;4925;52.588;13.370;2022-10-16T13:59:49;21.80;99.90
9772;DHT22;4925;52.588;13.370;2022-10-16T14:02:31;21.90;99.30
9772;DHT22;4925;52.588;13.370;2022-10-16T14:05:00;21.90;99.60
9772;DHT22;4925;52.588;13.370;2022-10-16T14:07:29;21.70;99.70
9772;DHT22;4925;52.588;13.370;2022-10-16T14:10:03;21.70;99.90
9772;DHT22;4925;52.588;13.370;2022-10-16T14:12:30;21.80;99.90
9772;DHT22;4925;52.588;13.370;2022-10-16T14:14:57;21.80;99.90
9772;DHT22;4925;52.588;13.370;2022-10-16T14:17:33;21.70;99.90
9772;DHT22;4925;52.588;13.370;2022-10-16T14:20:02;21.60;99.90
9772;DHT22;4925;52.588;13.370;2022-10-16T14:22:36;21.50;99.90
9772;DHT22;4925;52.588;13.370;2022-10-16T14:28:19;21.40;99.90
9772;DHT22;4925;52.588;13.370;2022-10-16T14:30:55;21.40;99.90
9772;DHT22;4925;52.588;13.370;2022-10-16T14:33:41;21.40;99.90
9772;DHT22;4925;52.588;13.370;2022-10-16T14:38:36;21.20;99.90
9772;DHT22;4925;52.588;13.370;2022-10-16T14:41:03;21.10;99.90
9772;DHT22;4925;52.588;13.370;2022-10-16T14:43:33;21.10;99.90
9772;DHT22;4925;52.588;13.370;2022-10-16T14:46:00;21.00;99.90
9772;DHT22;4925;52.588;13.370;2022-10-16T14:48:27;21.00;99.90
9772;DHT22;4925;52.588;13.370;2022-10-16T14:50:53;20.90;99.90
9772;DHT22;4925;52.588;13.370;2022-10-16T14:53:18;20.80;99.90
9772;DHT22;4925;52.588;13.370;2022-10-16T14:55:44;20.70;99.90
9772;DHT22;4925;52.588;13.370;2022-10-16T14:58:21;20.70;99.90
9772;DHT22;4925;52.588;13.370;2022-10-16T15:00:48;20.60;99.90
9772;DHT22;4925;52.588;13.370;2022-10-16T15:03:14;21.70;99.90
9772;DHT22;4925;52.588;13.370;2022-10-16T15:05:40;20.60;99.90
9772;DHT22;4925;52.588;13.370;2022-10-16T15:08:06;20.60;99.90
9772;DHT22;4925;52.588;13.370;2022-10-16T15:10:35;20.50;99.90
9772;DHT22;4925;52.588;13.370;2022-10-16T15:13:03;20.50;99.90
9772;DHT22;4925;52.588;13.370;2022-10-16T15:15:32;20.40;99.90
9772;DHT22;4925;52.588;13.370;2022-10-16T15:17:59;20.40;99.90
9772;DHT22;4925;52.588;13.370;2022-10-16T15:20:28;20.30;99.90
9772;DHT22;4925;52.588;13.370;2022-10-16T15:22:55;20.20;99.90
9772;DHT22;4925;52.588;13.370;2022-10-16T15:25:29;20.20;99.90
9772;DHT22;4925;52.588;13.370;2022-10-16T15:27:56;20.10;99.90
9772;DHT22;4925;52.588;13.370;2022-10-16T15:30:21;20.00;99.90
9772;DHT22;4925;52.588;13.370;2022-10-16T15:32:47;20.00;99.90
9772;DHT22;4925;52.588;13.370;2022-10-16T15:35:12;19.90;99.90
9772;DHT22;4925;52.588;13.370;2022-10-16T15:37:38;20.90;99.90
9772;DHT22;4925;52.588;13.370;2022-10-16T15:40:04;19.70;99.90
9772;DHT22;4925;52.588;13.370;2022-10-16T15:42:30;19.70;99.90
9772;DHT22;4925;52.588;13.370;2022-10-16T15:44:55;19.70;99.90
9772;DHT22;4925;52.588;13.370;2022-10-16T15:47:21;19.60;99.90
9772;DHT22;4925;52.588;13.370;2022-10-16T15:49:46;19.50;99.90
9772;DHT22;4925;52.588;13.370;2022-10-16T15:52:12;19.50;99.90
9772;DHT22;4925;52.588;13.370;2022-10-16T15:54:38;19.40;99.90
9772;DHT22;4925;52.588;13.370;2022-10-16T15:57:03;19.40;99.90
9772;DHT22;4925;52.588;13.370;2022-10-16T15:59:29;19.30;99.90
9772;DHT22;4925;52.588;13.370;2022-10-16T16:01:55;19.20;99.90
9772;DHT22;4925;52.588;13.370;2022-10-16T16:04:20;19.20;99.90
9772;DHT22;4925;52.588;13.370;2022-10-16T16:06:46;19.20;99.90
9772;DHT22;4925;52.588;13.370;2022-10-16T16:09:13;19.10;99.90
9772;DHT22;4925;52.588;13.370;2022-10-16T16:11:39;19.00;99.90
9772;DHT22;4925;52.588;13.370;2022-10-16T16:14:06;18.90;99.90
9772;DHT22;4925;52.588;13.370;2022-10-16T16:16:32;18.90;99.90
9772;DHT22;4925;52.588;13.370;2022-10-16T16:19:03;18.80;99.90
9772;DHT22;4925;52.588;13.370;2022-10-16T16:21:30;18.80;99.90
9772;DHT22;4925;52.588;13.370;2022-10-16T16:23:56;18.70;99.90
9772;DHT22;4925;52.588;13.370;2022-10-16T16:26:29;18.60;99.90
9772;DHT22;4925;52.588;13.370;2022-10-16T16:29:01;18.60;99.90
9772;DHT22;4925;52.588;13.370;2022-10-16T16:31:29;18.50;99.90
9772;DHT22;4925;52.588;13.370;2022-10-16T16:33:55;18.40;99.90
9772;DHT22;4925;52.588;13.370;2022-10-16T16:36:22;18.40;99.90
9772;DHT22;4925;52.588;13.370;2022-10-16T16:38:48;18.30;99.90
9772;DHT22;4925;52.588;13.370;2022-10-16T16:41:22;18.30;99.90
9772;DHT22;4925;52.588;13.370;2022-10-16T16:43:48;18.10;99.90
9772;DHT22;4925;52.588;13.370;2022-10-16T16:46:17;18.10;99.90
9772;DHT22;4925;52.588;13.370;2022-10-16T16:48:43;18.00;99.90
9772;DHT22;4925;52.588;13.370;2022-10-16T16:51:14;17.90;99.90
9772;DHT22;4925;52.588;13.370;2022-10-16T16:53:42;17.80;99.90
9772;DHT22;4925;52.588;13.370;2022-10-16T16:56:08;16.50;99.90
9772;DHT22;4925;52.588;13.370;2022-10-16T16:58:34;17.80;99.90
9772;DHT22;4925;52.588;13.370;2022-10-16T17:01:00;17.70;99.90
9772;DHT22;4925;52.588;13.370;2022-10-16T17:03:28;17.60;99.90
9772;DHT22;4925;52.588;13.370;2022-10-16T17:06:07;17.60;99.90
9772;DHT22;4925;52.588;13.370;2022-10-16T17:08:37;17.50;99.90
9772;DHT22;4925;52.588;13.370;2022-10-16T17:11:03;17.40;99.90
9772;DHT22;4925;52.588;13.370;2022-10-16T17:13:34;17.20;99.90
9772;DHT22;4925;52.588;13.370;2022-10-16T17:16:04;17.20;99.90
9772;DHT22;4925;52.588;13.370;2022-10-16T17:18:31;17.10;99.90
9772;DHT22;4925;52.588;13.370;2022-10-16T17:21:04;17.00;99.90
9772;DHT22;4925;52.588;13.370;2022-10-16T17:23:31;16.80;99.90
9772;DHT22;4925;52.588;13.370;2022-10-16T17:26:10;16.80;99.90
9772;DHT22;4925;52.588;13.370;2022-10-16T17:28:36;16.70;99.90
9772;DHT22;4925;52.588;13.370;2022-10-16T17:31:14;16.60;99.90
9772;DHT22;4925;52.588;13.370;2022-10-16T17:33:41;16.40;99.90
9772;DHT22;4925;52.588;13.370;2022-10-16T17:36:07;16.40;99.90
9772;DHT22;4925;52.588;13.370;2022-10-16T17:38:33;16.30;99.90
9772;DHT22;4925;52.588;13.370;2022-10-16T17:41:09;16.20;99.90
9772;DHT22;4925;52.588;13.370;2022-10-16T17:43:36;16.20;99.90
9772;DHT22;4925;52.588;13.370;2022-10-16T17:46:02;16.10;99.90
9772;DHT22;4925;52.588;13.370;2022-10-16T17:48:28;16.00;99.90
9772;DHT22;4925;52.588;13.370;2022-10-16T17:50:54;16.00;99.90
9772;DHT22;4925;52.588;13.370;2022-10-16T17:53:19;15.90;99.90
9772;DHT22;4925;52.588;13.370;2022-10-16T17:55:46;16.50;99.90